Terminal Aerodrome Forecast
Issued by NWS Upton, NY

Home | Current Version | Previous Version | Text Only | Print | Product List | Glossary On
Versions: 1 2 3 4 5 6 7 8 9 10 11 12 13 14 15 16 17 18 19 20 21 22 23 24 25
000
FTUS41 KOKX 051434 AAA
TAFISP
TAF AMD
KISP 051434Z 0515/0612 36006KT P6SM SCT100
     FM051800 21008KT P6SM FEW050 SCT150 BKN250
     FM060100 VRB04KT P6SM BKN060
     FM060900 04007KT 6SM -SHRA BKN040=

USA.gov is the U.S. government's official web portal to all federal, state and local government web resources and services.